createdAt,value
2023-02-12T00:00:06.006Z,29.30
2023-02-12T00:00:56.717Z,31.15
2023-02-12T00:01:38.696Z,29.00
2023-02-12T00:02:44.344Z,28.33
2023-02-12T00:03:32.578Z,28.67
2023-02-12T00:04:24.528Z,29.25
2023-02-12T00:05:08.925Z,30.27
2023-02-12T00:05:50.650Z,30.25
2023-02-12T00:06:32.463Z,27.65
2023-02-12T00:07:14.210Z,28.27
2023-02-12T00:08:00.274Z,26.08
2023-02-12T00:08:51.786Z,27.67
2023-02-12T00:09:33.659Z,28.05
2023-02-12T00:10:15.466Z,27.10
2023-02-12T00:11:16.392Z,30.00
2023-02-12T00:12:14.418Z,30.45
2023-02-12T00:12:57.428Z,28.40
2023-02-12T00:13:50.503Z,29.13
2023-02-12T00:14:33.634Z,29.73
2023-02-12T00:15:19.327Z,27.38
2023-02-12T00:16:06.948Z,28.10
2023-02-12T00:16:51.688Z,28.25
2023-02-12T00:17:33.397Z,27.15
2023-02-12T00:18:18.083Z,27.30
2023-02-12T00:19:07.471Z,27.75
2023-02-12T00:19:51.929Z,27.38
2023-02-12T00:20:44.558Z,26.25
2023-02-12T00:21:29.148Z,29.35
2023-02-12T00:22:16.840Z,27.80
2023-02-12T00:23:11.939Z,28.75
2023-02-12T00:23:58.362Z,27.23
2023-02-12T00:24:41.490Z,28.13
2023-02-12T00:25:23.266Z,27.50
2023-02-12T00:26:09.494Z,26.30
2023-02-12T00:26:55.788Z,26.48
2023-02-12T00:27:38.782Z,25.08
2023-02-12T00:28:29.123Z,27.67
2023-02-12T00:29:11.266Z,33.55
2023-02-12T00:30:03.570Z,28.90
2023-02-12T00:30:48.468Z,28.52
2023-02-12T00:31:33.878Z,27.77
2023-02-12T00:32:23.475Z,29.27
2023-02-12T00:33:17.313Z,25.27
2023-02-12T00:34:02.046Z,26.85
2023-02-12T00:34:50.647Z,26.38
2023-02-12T00:35:37.482Z,26.42
2023-02-12T00:36:40.480Z,27.17
2023-02-12T00:37:26.469Z,25.58
2023-02-12T00:38:36.826Z,26.60
2023-02-12T00:39:23.511Z,27.92
2023-02-12T00:40:06.347Z,30.77
2023-02-12T00:40:56.988Z,28.80
2023-02-12T00:41:41.645Z,29.20
2023-02-12T00:42:30.756Z,29.73
2023-02-12T00:43:12.409Z,28.60
2023-02-12T00:44:01.294Z,31.98
2023-02-12T00:44:45.931Z,29.00
2023-02-12T00:45:29.740Z,29.52
2023-02-12T00:46:22.441Z,29.13
2023-02-12T00:47:11.780Z,28.73
2023-02-12T00:47:56.589Z,28.35
2023-02-12T00:48:41.393Z,29.20
2023-02-12T00:49:34.058Z,27.35
2023-02-12T00:50:20.559Z,27.23
2023-02-12T00:51:02.802Z,27.73
2023-02-12T00:51:50.238Z,25.50
2023-02-12T00:52:35.989Z,24.88
2023-02-12T00:53:23.080Z,24.40
2023-02-12T00:54:13.461Z,23.63
2023-02-12T00:55:07.040Z,25.95
2023-02-12T00:55:51.352Z,26.55
2023-02-12T00:56:40.202Z,25.88
2023-02-12T00:57:31.827Z,25.63
2023-02-12T00:58:18.870Z,26.48
2023-02-12T00:59:13.527Z,25.75
2023-02-12T00:59:59.714Z,27.70
2023-02-12T01:00:45.394Z,26.83
2023-02-12T01:01:32.927Z,28.77
2023-02-12T01:02:22.069Z,27.17
2023-02-12T01:03:06.881Z,29.80
2023-02-12T01:04:07.563Z,26.75
2023-02-12T01:04:49.426Z,25.90
2023-02-12T01:05:45.594Z,26.13
2023-02-12T01:06:35.751Z,27.00
2023-02-12T01:07:27.744Z,27.42
2023-02-12T01:08:15.213Z,26.02
2023-02-12T01:09:02.721Z,24.83
2023-02-12T01:09:51.922Z,25.63
2023-02-12T01:10:37.256Z,25.02
2023-02-12T01:11:33.878Z,25.27
2023-02-12T01:12:15.561Z,26.23
2023-02-12T01:13:00.725Z,27.42
2023-02-12T01:13:42.549Z,28.38
2023-02-12T01:14:27.986Z,29.75
2023-02-12T01:15:27.440Z,27.38
2023-02-12T01:16:24.911Z,27.40
2023-02-12T01:17:16.257Z,25.88
2023-02-12T01:18:07.287Z,26.98
2023-02-12T01:18:53.723Z,25.17
2023-02-12T01:19:42.320Z,26.48
2023-02-12T01:20:28.539Z,27.15
2023-02-12T01:21:30.639Z,28.20
2023-02-12T01:22:15.117Z,30.48
2023-02-12T01:23:07.015Z,28.92
2023-02-12T01:23:58.885Z,29.60
2023-02-12T01:24:50.637Z,30.42
2023-02-12T01:25:38.872Z,29.67
2023-02-12T01:26:21.750Z,28.85
2023-02-12T01:27:06.558Z,27.50
2023-02-12T01:28:05.518Z,29.15
2023-02-12T01:28:56.201Z,26.38
2023-02-12T01:29:41.666Z,26.73
2023-02-12T01:30:24.336Z,26.75
2023-02-12T01:31:15.329Z,26.48
2023-02-12T01:32:18.746Z,26.95
2023-02-12T01:33:00.638Z,27.05
2023-02-12T01:33:43.367Z,24.33
2023-02-12T01:34:28.535Z,25.33
2023-02-12T01:35:14.573Z,25.88
2023-02-12T01:36:09.083Z,26.52
2023-02-12T01:36:53.572Z,25.85
2023-02-12T01:37:53.555Z,27.05
2023-02-12T01:38:40.915Z,28.17
2023-02-12T01:39:24.565Z,30.65
2023-02-12T01:40:09.356Z,31.40
2023-02-12T01:40:51.079Z,29.40
2023-02-12T01:41:46.108Z,29.55
2023-02-12T01:42:27.829Z,29.45
2023-02-12T01:43:18.629Z,28.63
2023-02-12T01:44:10.944Z,26.45
2023-02-12T01:45:19.272Z,29.50
2023-02-12T01:46:08.334Z,25.42
2023-02-12T01:47:01.706Z,26.00
2023-02-12T01:47:53.784Z,27.75
2023-02-12T01:48:48.332Z,27.05
2023-02-12T01:49:47.843Z,27.85
2023-02-12T01:50:36.932Z,27.73
2023-02-12T01:51:27.843Z,26.70
2023-02-12T01:52:21.345Z,26.42
2023-02-12T01:53:18.684Z,25.73
2023-02-12T01:54:04.091Z,25.50
2023-02-12T01:54:57.105Z,23.75
2023-02-12T01:55:39.740Z,26.63
2023-02-12T01:56:40.684Z,24.17
2023-02-12T01:57:24.695Z,24.60
2023-02-12T01:58:12.037Z,25.58
2023-02-12T01:58:59.573Z,26.40
2023-02-12T01:59:58.290Z,25.80
2023-02-12T02:00:50.695Z,25.77
2023-02-12T02:01:42.589Z,26.90
2023-02-12T02:02:25.298Z,25.15
2023-02-12T02:03:07.423Z,24.73
2023-02-12T02:03:59.468Z,25.08
2023-02-12T02:04:48.585Z,24.33
2023-02-12T02:05:56.288Z,24.25
2023-02-12T02:06:54.470Z,25.67
2023-02-12T02:07:45.919Z,25.45
2023-02-12T02:08:30.648Z,25.08
2023-02-12T02:09:16.766Z,25.90
2023-02-12T02:09:58.990Z,24.98
2023-02-12T02:10:51.187Z,26.60
2023-02-12T02:11:59.965Z,25.98
2023-02-12T02:13:05.397Z,25.23
2023-02-12T02:14:26.640Z,25.15
2023-02-12T02:15:18.717Z,27.00
2023-02-12T02:16:06.634Z,27.05
2023-02-12T02:17:19.763Z,26.63
2023-02-12T02:18:21.727Z,25.02
2023-02-12T02:19:11.155Z,25.52
2023-02-12T02:20:17.762Z,25.40
2023-02-12T02:21:03.807Z,26.67
2023-02-12T02:22:20.239Z,26.40
2023-02-12T02:23:52.578Z,25.05
2023-02-12T02:25:08.560Z,25.77
2023-02-12T02:26:34.309Z,25.63
2023-02-12T02:27:39.218Z,25.17
2023-02-12T02:28:52.861Z,26.70
2023-02-12T02:29:52.843Z,25.30
2023-02-12T02:31:00.137Z,26.08
2023-02-12T02:31:58.050Z,25.25
2023-02-12T02:33:11.932Z,25.10
2023-02-12T02:34:41.350Z,28.00
2023-02-12T02:35:51.982Z,29.23
2023-02-12T02:37:00.617Z,26.85
2023-02-12T02:37:58.830Z,26.55
2023-02-12T02:39:12.707Z,27.15
2023-02-12T02:40:06.257Z,25.27
2023-02-12T02:41:31.174Z,25.70
2023-02-12T02:42:37.270Z,24.50
2023-02-12T02:43:32.994Z,25.27
2023-02-12T02:44:43.922Z,25.00
2023-02-12T02:45:47.261Z,27.30
2023-02-12T02:46:49.032Z,26.90
2023-02-12T02:47:38.229Z,25.25
2023-02-12T02:48:36.702Z,24.85
2023-02-12T02:49:42.669Z,24.52
2023-02-12T02:50:27.907Z,28.10
2023-02-12T02:51:19.438Z,27.45
2023-02-12T02:52:09.194Z,26.77
2023-02-12T02:52:56.689Z,27.95
2023-02-12T02:54:14.124Z,26.95
2023-02-12T02:55:08.579Z,27.25
2023-02-12T02:55:58.945Z,26.92
2023-02-12T02:56:51.124Z,27.48
2023-02-12T02:57:45.678Z,25.48
2023-02-12T02:59:01.502Z,26.30
2023-02-12T02:59:50.858Z,25.52
2023-02-12T03:01:00.961Z,24.60
2023-02-12T03:01:55.075Z,24.50
2023-02-12T03:03:01.114Z,26.13
2023-02-12T03:05:27.113Z,24.88
2023-02-12T03:06:24.166Z,28.13
2023-02-12T03:07:33.964Z,26.15
2023-02-12T03:08:24.041Z,26.50
2023-02-12T03:09:43.700Z,28.83
2023-02-12T03:10:36.073Z,27.77
2023-02-12T03:11:31.080Z,26.90
2023-02-12T03:12:19.845Z,26.08
2023-02-12T03:13:14.669Z,25.90
2023-02-12T03:14:04.404Z,26.33
2023-02-12T03:15:12.571Z,27.63
2023-02-12T03:16:18.328Z,24.70
2023-02-12T03:17:08.446Z,26.17
2023-02-12T03:18:00.693Z,25.77
2023-02-12T03:19:06.516Z,26.13
2023-02-12T03:20:00.285Z,25.20
2023-02-12T03:20:51.178Z,27.70
2023-02-12T03:21:46.333Z,26.02
2023-02-12T03:22:41.246Z,25.77
2023-02-12T03:23:33.504Z,27.95
2023-02-12T03:24:35.183Z,27.45
2023-02-12T03:25:26.737Z,25.25
2023-02-12T03:26:23.732Z,26.48
2023-02-12T03:27:16.183Z,26.70
2023-02-12T03:28:20.281Z,25.88
2023-02-12T03:29:02.135Z,27.83
2023-02-12T03:31:33.275Z,25.75
2023-02-12T03:32:43.576Z,25.85
2023-02-12T03:33:48.786Z,25.83
2023-02-12T03:34:48.662Z,24.77
2023-02-12T03:35:49.374Z,25.13
2023-02-12T03:37:41.570Z,25.80
2023-02-12T03:38:46.315Z,25.20
2023-02-12T03:39:36.352Z,24.60
2023-02-12T03:40:25.353Z,25.88
2023-02-12T03:41:20.974Z,26.02
2023-02-12T03:42:09.399Z,26.38
2023-02-12T03:42:58.316Z,26.35
2023-02-12T03:43:58.160Z,26.08
2023-02-12T03:45:02.335Z,26.98
2023-02-12T03:46:15.050Z,25.35
2023-02-12T03:47:09.678Z,24.77
2023-02-12T03:48:17.631Z,26.95
2023-02-12T03:49:00.799Z,24.60
2023-02-12T03:50:09.711Z,27.40
2023-02-12T03:51:02.616Z,26.48
2023-02-12T03:51:48.353Z,26.50
2023-02-12T03:52:30.486Z,26.20
2023-02-12T03:53:17.980Z,25.60
2023-02-12T03:54:05.054Z,25.23
2023-02-12T03:54:49.813Z,24.85
2023-02-12T03:55:51.506Z,24.75
2023-02-12T03:57:02.074Z,23.85
2023-02-12T03:57:54.400Z,26.60
2023-02-12T03:58:42.648Z,26.63
2023-02-12T03:59:25.472Z,25.85
2023-02-12T04:00:13.854Z,27.20
2023-02-12T04:01:06.302Z,26.27
2023-02-12T04:01:52.544Z,27.00
2023-02-12T04:02:41.744Z,25.80
2023-02-12T04:03:26.271Z,26.35
2023-02-12T04:04:09.633Z,26.50
2023-02-12T04:05:00.698Z,25.50
2023-02-12T04:05:43.961Z,24.63
2023-02-12T04:06:34.073Z,24.88
2023-02-12T04:07:20.116Z,24.20
2023-02-12T04:08:12.639Z,27.00
2023-02-12T04:08:57.365Z,25.35
2023-02-12T04:09:45.421Z,26.77
2023-02-12T04:10:45.980Z,24.38
2023-02-12T04:11:36.574Z,25.00
2023-02-12T04:12:49.868Z,25.77
2023-02-12T04:13:57.536Z,24.02
2023-02-12T04:14:51.155Z,26.45
2023-02-12T04:15:38.915Z,26.02
2023-02-12T04:17:00.537Z,25.13
2023-02-12T04:18:01.670Z,24.45
2023-02-12T04:18:50.535Z,25.13
2023-02-12T04:19:41.504Z,27.02
2023-02-12T04:20:44.106Z,24.50
2023-02-12T04:21:50.541Z,25.30
2023-02-12T04:23:07.599Z,23.85
2023-02-12T04:24:11.921Z,23.98
2023-02-12T04:25:35.689Z,24.52
2023-02-12T04:26:30.295Z,22.63
2023-02-12T04:27:38.052Z,24.13
2023-02-12T04:28:37.334Z,25.98
2023-02-12T04:29:45.053Z,24.00
2023-02-12T04:30:44.386Z,24.70
2023-02-12T04:31:29.518Z,26.50
2023-02-12T04:32:56.180Z,23.05
2023-02-12T04:33:48.830Z,26.55
2023-02-12T04:34:43.659Z,25.60
2023-02-12T04:35:36.625Z,25.42
2023-02-12T04:36:24.384Z,24.42
2023-02-12T04:37:10.183Z,25.63
2023-02-12T04:38:16.090Z,25.73
2023-02-12T04:39:08.126Z,25.05
2023-02-12T04:39:52.947Z,24.60
2023-02-12T04:40:39.942Z,27.88
2023-02-12T04:41:28.960Z,27.45
2023-02-12T04:42:12.036Z,25.75
2023-02-12T04:43:12.915Z,24.08
2023-02-12T04:43:54.794Z,25.38
2023-02-12T04:44:43.942Z,24.85
2023-02-12T04:45:35.287Z,25.95
2023-02-12T04:46:27.140Z,24.35
2023-02-12T04:47:22.082Z,24.33
2023-02-12T04:48:15.672Z,24.90
2023-02-12T04:49:09.125Z,29.30
2023-02-12T04:49:53.399Z,25.95
2023-02-12T04:50:43.302Z,26.73
2023-02-12T04:51:25.469Z,27.35
2023-02-12T04:52:12.732Z,25.88
2023-02-12T04:52:54.417Z,26.38
2023-02-12T04:53:39.751Z,24.60
2023-02-12T04:54:22.911Z,27.77
2023-02-12T04:55:07.708Z,26.02
2023-02-12T04:55:53.314Z,26.42
2023-02-12T04:56:35.159Z,27.55
2023-02-12T04:57:16.888Z,26.23
2023-02-12T04:57:58.621Z,24.70
2023-02-12T04:58:43.301Z,26.27
2023-02-12T04:59:24.986Z,25.92
2023-02-12T05:00:15.063Z,26.20
2023-02-12T05:01:04.914Z,25.83
2023-02-12T05:01:47.974Z,25.45
2023-02-12T05:02:29.704Z,25.38
2023-02-12T05:03:17.447Z,25.50
2023-02-12T05:04:02.262Z,26.17
2023-02-12T05:04:59.197Z,25.05
2023-02-12T05:06:07.632Z,24.92
2023-02-12T05:06:58.301Z,24.88
2023-02-12T05:07:43.246Z,26.30
2023-02-12T05:09:26.853Z,24.98
2023-02-12T05:10:09.256Z,24.00
2023-02-12T05:10:53.061Z,24.83
2023-02-12T05:11:40.615Z,26.00
2023-02-12T05:12:42.154Z,25.55
2023-02-12T05:13:32.826Z,27.30
2023-02-12T05:14:23.870Z,25.73
2023-02-12T05:15:12.556Z,26.08
2023-02-12T05:16:40.777Z,25.55
2023-02-12T05:17:23.483Z,24.85
2023-02-12T05:18:09.348Z,25.13
2023-02-12T05:18:53.849Z,24.23
2023-02-12T05:19:41.577Z,25.35
2023-02-12T05:20:46.141Z,25.95
2023-02-12T05:21:41.673Z,28.10
2023-02-12T05:22:32.334Z,26.10
2023-02-12T05:23:14.001Z,26.98
2023-02-12T05:24:13.986Z,25.52
2023-02-12T05:24:58.390Z,27.77
2023-02-12T05:25:40.269Z,25.13
2023-02-12T05:26:25.019Z,25.20
2023-02-12T05:27:19.912Z,26.20
2023-02-12T05:28:04.664Z,25.63
2023-02-12T05:28:54.705Z,26.23
2023-02-12T05:29:43.865Z,26.35
2023-02-12T05:30:25.553Z,28.23
2023-02-12T05:31:28.118Z,26.60
2023-02-12T05:32:26.996Z,25.98
2023-02-12T05:33:12.095Z,25.80
2023-02-12T05:33:56.663Z,26.00
2023-02-12T05:34:40.458Z,25.88
2023-02-12T05:35:25.000Z,26.20
2023-02-12T05:36:12.429Z,26.13
2023-02-12T05:36:54.284Z,26.15
2023-02-12T05:37:39.452Z,26.75
2023-02-12T05:38:24.454Z,25.35
2023-02-12T05:39:14.620Z,25.10
2023-02-12T05:39:59.144Z,26.63
2023-02-12T05:40:53.876Z,27.35
2023-02-12T05:41:41.156Z,24.52
2023-02-12T05:42:27.868Z,26.98
2023-02-12T05:43:13.266Z,25.13
2023-02-12T05:44:06.593Z,24.98
2023-02-12T05:44:49.739Z,24.60
2023-02-12T05:45:33.206Z,25.50
2023-02-12T05:46:22.555Z,26.98
2023-02-12T05:47:07.472Z,24.95
2023-02-12T05:47:49.133Z,24.58
2023-02-12T05:49:38.488Z,24.30
2023-02-12T05:50:20.238Z,27.40
2023-02-12T05:51:13.455Z,24.55
2023-02-12T05:51:55.099Z,24.50
2023-02-12T05:52:42.497Z,25.50
2023-02-12T05:53:51.094Z,26.23
2023-02-12T05:54:58.230Z,25.77
2023-02-12T05:55:43.688Z,23.23
2023-02-12T05:56:51.795Z,24.30
2023-02-12T05:57:40.545Z,26.60
2023-02-12T05:58:27.926Z,26.73
2023-02-12T05:59:20.218Z,25.83
2023-02-12T06:00:23.666Z,25.95
2023-02-12T06:01:16.320Z,28.45
2023-02-12T06:02:00.276Z,27.73
2023-02-12T06:02:46.986Z,27.95
2023-02-12T06:03:45.429Z,25.48
2023-02-12T06:04:41.337Z,26.92
2023-02-12T06:06:36.426Z,26.02
2023-02-12T06:07:18.157Z,25.27
2023-02-12T06:08:07.142Z,25.75
2023-02-12T06:09:09.307Z,26.88
2023-02-12T06:10:05.204Z,26.67
2023-02-12T06:10:53.210Z,26.80
2023-02-12T06:11:46.518Z,26.42
2023-02-12T06:12:36.250Z,28.73
2023-02-12T06:13:17.917Z,25.52
2023-02-12T06:14:05.172Z,26.40
2023-02-12T06:15:10.523Z,26.42
2023-02-12T06:15:55.494Z,26.75
2023-02-12T06:16:47.846Z,29.55
2023-02-12T06:17:34.102Z,26.08
2023-02-12T06:18:17.009Z,26.90
2023-02-12T06:19:07.360Z,27.70
2023-02-12T06:19:49.001Z,28.73
2023-02-12T06:20:30.786Z,27.23
2023-02-12T06:21:32.506Z,25.13
2023-02-12T06:22:17.986Z,25.98
2023-02-12T06:23:08.718Z,24.30
2023-02-12T06:23:55.799Z,27.15
2023-02-12T06:24:37.484Z,25.58
2023-02-12T06:25:24.961Z,24.98
2023-02-12T06:26:11.845Z,26.05
2023-02-12T06:27:12.710Z,23.67
2023-02-12T06:27:56.375Z,24.88
2023-02-12T06:28:42.818Z,25.17
2023-02-12T06:29:24.565Z,25.23
2023-02-12T06:30:19.074Z,25.52
2023-02-12T06:31:06.270Z,29.95
2023-02-12T06:31:52.401Z,29.13
2023-02-12T06:32:36.591Z,28.38
2023-02-12T06:33:26.061Z,25.73
2023-02-12T06:34:17.483Z,26.58
2023-02-12T06:35:18.830Z,27.58
2023-02-12T06:36:04.627Z,29.25
2023-02-12T06:36:55.110Z,33.58
2023-02-12T06:37:42.712Z,34.03
2023-02-12T06:38:30.077Z,34.67
2023-02-12T06:39:16.495Z,32.05
2023-02-12T06:40:00.862Z,29.77
2023-02-12T06:40:48.250Z,31.17
2023-02-12T06:41:37.388Z,30.10
2023-02-12T06:42:23.916Z,28.05
2023-02-12T06:43:09.682Z,32.90
2023-02-12T06:43:54.070Z,28.95
2023-02-12T06:44:48.476Z,27.42
2023-02-12T06:45:35.329Z,27.52
2023-02-12T06:46:17.124Z,28.38
2023-02-12T06:47:01.687Z,28.33
2023-02-12T06:47:57.865Z,27.85
2023-02-12T06:48:43.864Z,26.77
2023-02-12T06:49:28.439Z,32.03
2023-02-12T06:50:10.721Z,34.83
2023-02-12T06:50:53.005Z,29.60
2023-02-12T06:51:41.362Z,29.05
2023-02-12T06:52:35.179Z,32.22
2023-02-12T06:53:21.045Z,28.42
2023-02-12T06:54:20.578Z,27.25
2023-02-12T06:55:05.417Z,24.95
2023-02-12T06:55:48.748Z,26.15
2023-02-12T06:56:35.685Z,26.80
2023-02-12T06:57:26.306Z,26.27
2023-02-12T06:58:10.629Z,26.70
2023-02-12T06:59:06.343Z,25.10
2023-02-12T07:00:01.538Z,24.60
2023-02-12T07:01:19.697Z,26.45
2023-02-12T07:02:02.915Z,25.08
2023-02-12T07:02:46.091Z,24.10
2023-02-12T07:03:39.438Z,26.83
2023-02-12T07:04:26.372Z,26.77
2023-02-12T07:05:16.646Z,23.92
2023-02-12T07:06:20.836Z,23.63
2023-02-12T07:07:03.937Z,24.23
2023-02-12T07:07:55.877Z,23.75
2023-02-12T07:08:45.777Z,25.75
2023-02-12T07:09:30.264Z,24.88
2023-02-12T07:10:37.202Z,27.20
2023-02-12T07:11:38.271Z,25.30
2023-02-12T07:12:33.537Z,24.88
2023-02-12T07:13:29.683Z,25.08
2023-02-12T07:14:22.048Z,25.67
2023-02-12T07:15:08.598Z,27.20
2023-02-12T07:15:57.398Z,27.30
2023-02-12T07:16:39.336Z,25.60
2023-02-12T07:17:30.770Z,25.73
2023-02-12T07:18:18.018Z,26.88
2023-02-12T07:19:05.358Z,28.65
2023-02-12T07:19:57.132Z,27.00
2023-02-12T07:20:41.582Z,26.88
2023-02-12T07:21:25.667Z,27.33
2023-02-12T07:22:09.651Z,26.60
2023-02-12T07:22:53.597Z,28.10
2023-02-12T07:23:42.949Z,27.25
2023-02-12T07:24:31.985Z,27.48
2023-02-12T07:25:19.315Z,27.00
2023-02-12T07:26:08.049Z,26.80
2023-02-12T07:26:54.889Z,29.38
2023-02-12T07:27:41.713Z,28.30
2023-02-12T07:28:30.731Z,27.17
2023-02-12T07:29:14.349Z,27.73
2023-02-12T07:30:00.295Z,27.27
2023-02-12T07:30:44.879Z,27.17
2023-02-12T07:31:33.441Z,27.13
2023-02-12T07:32:20.188Z,29.63
2023-02-12T07:33:13.373Z,26.63
2023-02-12T07:34:03.840Z,30.58
2023-02-12T07:34:51.062Z,27.88
2023-02-12T07:35:40.689Z,27.60
2023-02-12T07:36:22.981Z,27.10
2023-02-12T07:37:06.879Z,29.40
2023-02-12T07:37:59.098Z,28.10
2023-02-12T07:38:43.860Z,28.98
2023-02-12T07:39:31.198Z,28.15
2023-02-12T07:40:16.009Z,26.65
2023-02-12T07:41:22.062Z,25.85
2023-02-12T07:42:12.432Z,25.88
2023-02-12T07:43:17.346Z,27.40
2023-02-12T07:44:10.341Z,26.25
2023-02-12T07:44:57.815Z,26.73
2023-02-12T07:45:39.526Z,27.05
2023-02-12T07:46:32.328Z,25.75
2023-02-12T07:47:15.957Z,26.75
2023-02-12T07:48:00.050Z,26.27
2023-02-12T07:48:49.931Z,25.95
2023-02-12T07:49:34.265Z,27.90
2023-02-12T07:50:33.256Z,27.52
2023-02-12T07:51:19.558Z,26.98
2023-02-12T07:52:03.468Z,26.48
2023-02-12T07:53:05.409Z,25.85
2023-02-12T07:53:59.148Z,24.55
2023-02-12T07:54:54.142Z,25.90
2023-02-12T07:55:58.537Z,27.27
2023-02-12T07:56:43.158Z,27.15
2023-02-12T07:57:37.190Z,25.70
2023-02-12T07:58:33.310Z,25.67
2023-02-12T07:59:19.657Z,26.20
2023-02-12T08:00:08.508Z,26.73
2023-02-12T08:00:59.072Z,25.45
2023-02-12T08:01:54.787Z,25.88
2023-02-12T08:02:37.465Z,25.48
2023-02-12T08:03:19.240Z,26.40
2023-02-12T08:04:15.781Z,27.38
2023-02-12T08:05:06.904Z,25.83
2023-02-12T08:05:51.915Z,26.48
2023-02-12T08:06:49.672Z,29.13
2023-02-12T08:07:31.382Z,29.63
2023-02-12T08:08:13.124Z,30.73
2023-02-12T08:09:02.089Z,31.45
2023-02-12T08:09:43.826Z,29.48
2023-02-12T08:10:34.054Z,29.80
2023-02-12T08:11:16.571Z,29.15
2023-02-12T08:11:59.548Z,29.60
2023-02-12T08:12:54.265Z,30.08
2023-02-12T08:13:39.370Z,31.73
2023-02-12T08:14:28.696Z,29.48
2023-02-12T08:15:13.234Z,27.50
2023-02-12T08:16:06.627Z,29.00
2023-02-12T08:16:57.642Z,27.95
2023-02-12T08:17:44.965Z,30.45
2023-02-12T08:18:35.843Z,30.35
2023-02-12T08:19:26.431Z,32.55
2023-02-12T08:20:09.295Z,29.08
2023-02-12T08:21:14.004Z,29.38
2023-02-12T08:22:03.110Z,28.65
2023-02-12T08:22:44.834Z,28.27
2023-02-12T08:23:32.366Z,29.20
2023-02-12T08:24:23.179Z,30.15
2023-02-12T08:25:14.011Z,35.60
2023-02-12T08:26:33.398Z,35.22
2023-02-12T08:27:21.556Z,43.10
2023-02-12T08:29:19.693Z,40.50
2023-02-12T08:30:22.819Z,44.63
2023-02-12T08:31:07.582Z,47.38
2023-02-12T08:32:00.558Z,40.75
2023-02-12T08:32:47.226Z,40.03
2023-02-12T08:33:31.750Z,41.55
2023-02-12T08:34:23.296Z,39.25
2023-02-12T08:35:05.242Z,40.55
2023-02-12T08:35:49.618Z,57.60
2023-02-12T08:36:39.288Z,45.25
2023-02-12T08:37:36.974Z,45.13
2023-02-12T08:38:31.793Z,37.13
2023-02-12T08:39:20.279Z,38.58
2023-02-12T08:40:07.183Z,35.70
2023-02-12T08:40:52.890Z,38.63
2023-02-12T08:41:40.808Z,36.55
2023-02-12T08:42:34.204Z,37.97
2023-02-12T08:43:19.773Z,34.80
2023-02-12T08:44:08.231Z,33.47
2023-02-12T08:44:55.726Z,33.65
2023-02-12T08:45:43.300Z,34.22
2023-02-12T08:46:32.245Z,33.55
2023-02-12T08:47:21.620Z,32.97
2023-02-12T08:48:09.782Z,34.50
2023-02-12T08:49:03.908Z,34.60
2023-02-12T08:49:54.329Z,33.30
2023-02-12T08:50:39.968Z,32.97
2023-02-12T08:51:24.741Z,33.80
2023-02-12T08:52:06.604Z,31.85
2023-02-12T08:52:53.942Z,30.13
2023-02-12T08:53:41.524Z,30.98
2023-02-12T08:54:30.539Z,31.10
2023-02-12T08:55:23.682Z,32.22
2023-02-12T08:56:11.066Z,33.20
2023-02-12T08:57:06.200Z,31.50
2023-02-12T08:57:52.939Z,33.33
2023-02-12T08:58:35.557Z,34.35
2023-02-12T08:59:17.539Z,33.55
2023-02-12T09:00:01.891Z,31.48
2023-02-12T09:00:53.025Z,30.98
2023-02-12T09:01:42.267Z,30.77
2023-02-12T09:02:27.914Z,31.35
2023-02-12T09:03:21.160Z,31.38
2023-02-12T09:04:04.773Z,32.47
2023-02-12T09:04:51.054Z,33.13
2023-02-12T09:05:42.822Z,35.13
2023-02-12T09:06:27.014Z,35.90
2023-02-12T09:07:12.104Z,37.13
2023-02-12T09:07:59.211Z,37.22
2023-02-12T09:08:47.456Z,40.78
2023-02-12T09:09:33.478Z,37.67
2023-02-12T09:10:19.793Z,37.22
2023-02-12T09:11:17.763Z,40.47
2023-02-12T09:12:09.223Z,41.80
2023-02-12T09:12:56.464Z,41.97
2023-02-12T09:13:41.817Z,39.50
2023-02-12T09:14:35.719Z,42.33
2023-02-12T09:15:17.454Z,42.35
2023-02-12T09:16:02.354Z,45.08
2023-02-12T09:16:48.158Z,46.00
2023-02-12T09:17:32.269Z,41.15
2023-02-12T09:18:15.260Z,41.03
2023-02-12T09:18:59.641Z,41.70
2023-02-12T09:19:49.533Z,40.08
2023-02-12T09:20:36.941Z,40.17
2023-02-12T09:21:19.783Z,41.70
2023-02-12T09:22:07.242Z,41.67
2023-02-12T09:22:54.047Z,45.78
2023-02-12T09:23:49.235Z,51.58
2023-02-12T09:24:42.011Z,44.45
2023-02-12T09:25:35.605Z,48.22
2023-02-12T09:26:30.229Z,46.13
2023-02-12T09:27:11.913Z,43.63
2023-02-12T09:28:12.968Z,45.92
2023-02-12T09:28:58.385Z,45.15
2023-02-12T09:29:44.112Z,46.40
2023-02-12T09:30:25.787Z,46.00
2023-02-12T09:31:29.987Z,43.00
2023-02-12T09:32:17.508Z,45.17
2023-02-12T09:33:08.009Z,44.60
2023-02-12T09:34:05.353Z,46.58
2023-02-12T09:34:49.795Z,46.40
2023-02-12T09:35:38.882Z,49.05
2023-02-12T09:36:35.918Z,44.03
2023-02-12T09:37:30.194Z,42.22
2023-02-12T09:38:17.705Z,42.92
2023-02-12T09:39:04.001Z,42.50
2023-02-12T09:39:48.576Z,45.15
2023-02-12T09:41:02.014Z,47.00
2023-02-12T09:42:09.456Z,39.70
2023-02-12T09:43:12.048Z,42.83
2023-02-12T09:44:04.403Z,41.42
2023-02-12T09:45:10.527Z,39.13
2023-02-12T09:46:14.063Z,38.70
2023-02-12T09:47:30.236Z,43.30
2023-02-12T09:48:50.347Z,43.95
2023-02-12T09:49:52.427Z,42.70
2023-02-12T09:51:01.965Z,40.90
2023-02-12T09:51:54.911Z,38.42
2023-02-12T09:52:53.107Z,42.08
2023-02-12T09:53:40.564Z,42.58
2023-02-12T09:54:37.687Z,44.47
2023-02-12T09:55:19.867Z,38.95
2023-02-12T09:56:01.706Z,38.08
2023-02-12T09:56:54.103Z,37.30
2023-02-12T09:57:43.400Z,36.33
2023-02-12T09:58:42.585Z,36.65
2023-02-12T09:59:47.810Z,34.92
2023-02-12T10:00:31.765Z,37.10
2023-02-12T10:01:33.659Z,37.28
2023-02-12T10:02:32.736Z,41.67
2023-02-12T10:03:30.055Z,37.38
2023-02-12T10:04:27.564Z,38.00
2023-02-12T10:05:38.518Z,37.65
2023-02-12T10:06:29.798Z,33.72
2023-02-12T10:07:17.280Z,36.25
2023-02-12T10:08:19.527Z,34.35
2023-02-12T10:09:36.236Z,34.83
2023-02-12T10:10:36.795Z,31.67
2023-02-12T10:11:57.735Z,33.80
2023-02-12T10:12:54.155Z,35.33
2023-02-12T10:13:55.705Z,36.42
2023-02-12T10:14:59.527Z,33.40
2023-02-12T10:16:02.913Z,32.75
2023-02-12T10:17:19.686Z,33.13
2023-02-12T10:18:08.469Z,35.10
2023-02-12T10:19:42.229Z,34.75
2023-02-12T10:20:59.122Z,32.08
2023-02-12T10:22:00.790Z,35.35
2023-02-12T10:23:31.181Z,32.10
2023-02-12T10:24:15.815Z,31.08
2023-02-12T10:25:32.235Z,33.08
2023-02-12T10:26:29.486Z,33.08
2023-02-12T10:27:43.336Z,30.80
2023-02-12T10:28:41.983Z,34.80
2023-02-12T10:29:42.627Z,32.05
2023-02-12T10:30:30.243Z,31.60
2023-02-12T10:31:36.539Z,35.55
2023-02-12T10:32:31.994Z,29.95
2023-02-12T10:33:20.830Z,31.42
2023-02-12T10:34:25.004Z,31.92
2023-02-12T10:35:17.963Z,32.42
2023-02-12T10:36:14.607Z,32.08
2023-02-12T10:37:20.485Z,33.47
2023-02-12T10:38:22.364Z,33.28
2023-02-12T10:39:16.101Z,32.92
2023-02-12T10:40:09.438Z,31.85
2023-02-12T10:40:57.576Z,32.17
2023-02-12T10:42:07.310Z,30.27
2023-02-12T10:42:54.988Z,31.00
2023-02-12T10:43:49.876Z,28.85
2023-02-12T10:44:32.871Z,27.85
2023-02-12T10:45:20.490Z,27.42
2023-02-12T10:46:05.180Z,27.95
2023-02-12T10:46:51.513Z,28.42
2023-02-12T10:47:37.794Z,28.75
2023-02-12T10:48:30.002Z,27.40
2023-02-12T10:49:17.045Z,25.50
2023-02-12T10:50:02.926Z,27.30
2023-02-12T10:50:48.522Z,24.90
2023-02-12T10:51:50.177Z,25.92
2023-02-12T10:53:19.122Z,23.88
2023-02-12T10:55:00.381Z,24.00
2023-02-12T10:55:49.062Z,24.88
2023-02-12T10:56:42.506Z,23.60
2023-02-12T10:57:29.276Z,24.88
2023-02-12T10:58:20.882Z,23.40
2023-02-12T10:59:05.718Z,21.40
2023-02-12T10:59:54.364Z,21.25
2023-02-12T11:00:38.259Z,21.20
2023-02-12T11:02:00.695Z,20.15
2023-02-12T11:03:03.527Z,20.83
2023-02-12T11:03:54.707Z,22.42
2023-02-12T11:04:44.860Z,23.27
2023-02-12T11:05:34.253Z,20.10
2023-02-12T11:06:29.404Z,20.30
2023-02-12T11:07:20.271Z,21.85
2023-02-12T11:08:37.612Z,18.73
2023-02-12T11:09:31.955Z,17.55
2023-02-12T11:10:29.183Z,20.65
2023-02-12T11:11:31.174Z,18.10
2023-02-12T11:12:31.864Z,17.92
2023-02-12T11:13:28.452Z,16.25
2023-02-12T11:14:22.831Z,17.20
2023-02-12T11:15:24.168Z,16.42
2023-02-12T11:16:12.887Z,16.50
2023-02-12T11:17:01.162Z,15.68
2023-02-12T11:18:01.139Z,17.20
2023-02-12T11:18:45.897Z,17.02
2023-02-12T11:19:43.646Z,15.25
2023-02-12T11:20:41.295Z,16.35